Time;durP1;ratioP1;P1;durP2;ratioP2;P2;SDS_P1;SDS_P2;PMS_P1;PMS_P2;Temp;Humidity;BMP_temperature;BMP_pressure;BME280_temperature;BME280_humidity;BME280_pressure;Samples;Min_cycle;Max_cycle;Signal;HPM_P1;HPM_P2
2022/05/11 00:01:49;;;;;;;;;8.75;7.75;;;;;22.63;42.78;100823.59;5037325;28;45546;-51
2022/05/11 00:04:15;;;;;;;;;8.25;8.25;;;;;22.56;42.96;100821.13;5037880;28;45386;-49
2022/05/11 00:06:40;;;;;;;;;11.25;10.75;;;;;22.43;42.86;100797.44;5037418;28;45564;-49
2022/05/11 00:09:07;;;;;;;;;7.00;7.00;;;;;22.47;42.91;100799.34;5037873;28;46140;-51
2022/05/11 00:11:33;;;;;;;;;9.40;9.40;;;;;22.68;43.09;100826.38;5037557;28;45388;-48
2022/05/11 00:13:58;;;;;;;;;9.25;9.25;;;;;22.68;42.71;100824.38;5037716;28;45335;-51
2022/05/11 00:16:27;;;;;;;;;8.00;6.50;;;;;22.69;42.97;100820.44;5037780;28;45355;-50
2022/05/11 00:18:53;;;;;;;;;8.40;8.40;;;;;22.66;42.99;100823.84;5052872;28;46269;-49
2022/05/11 00:21:19;;;;;;;;;9.75;8.75;;;;;22.56;42.92;100807.13;5036648;28;45371;-51
2022/05/11 00:23:45;;;;;;;;;7.00;7.00;;;;;22.61;43.09;100805.16;5052499;28;45343;-49
2022/05/11 00:26:11;;;;;;;;;7.75;6.25;;;;;22.63;43.11;100804.88;5037658;28;45303;-52
2022/05/11 00:28:36;;;;;;;;;8.50;6.75;;;;;22.56;42.94;100794.00;5037259;28;45977;-53
2022/05/11 00:31:02;;;;;;;;;9.00;9.00;;;;;22.42;43.13;100765.81;5023068;28;45354;-49
2022/05/11 00:33:27;;;;;;;;;10.25;8.25;;;;;22.45;43.05;100761.63;5034108;28;45256;-48
2022/05/11 00:35:53;;;;;;;;;7.00;7.00;;;;;22.57;43.02;100786.47;5033611;28;45252;-49
2022/05/11 00:38:20;;;;;;;;;6.25;6.25;;;;;22.45;43.65;100783.97;5037293;28;46052;-49
2022/05/11 00:40:48;;;;;;;;;11.00;10.00;;;;;22.21;43.72;100756.78;5035680;28;45501;-49
2022/05/11 00:43:14;;;;;;;;;8.00;8.00;;;;;22.38;43.77;100781.53;5035943;28;45455;-48
2022/05/11 00:45:45;;;;;;;;;8.50;8.50;;;;;22.18;43.88;100749.81;5036854;28;45551;-48
2022/05/11 00:50:56;;;;;;;;;8.20;7.60;;;;;22.38;43.54;100775.09;5035729;28;45428;-49
2022/05/11 00:53:21;;;;;;;;;8.50;7.50;;;;;22.34;43.77;100777.63;5037070;28;45299;-51
2022/05/11 00:55:50;;;;;;;;;7.00;7.00;;;;;21.83;43.99;100690.28;5037133;28;45397;-52
2022/05/11 00:58:21;;;;;;;;;10.80;7.60;;;;;22.34;43.59;100774.84;5036826;28;45275;-49
2022/05/11 01:00:47;;;;;;;;;7.60;7.20;;;;;22.29;43.48;100760.91;5019356;28;45447;-49
2022/05/11 01:03:13;;;;;;;;;9.00;8.00;;;;;22.10;43.88;100730.88;5036877;28;45409;-49
2022/05/11 01:05:42;;;;;;;;;9.20;7.60;;;;;22.27;43.90;100757.56;5036027;28;45577;-48
2022/05/11 01:08:08;;;;;;;;;8.00;8.00;;;;;22.18;43.61;100744.22;5036751;28;45341;-50
2022/05/11 01:10:33;;;;;;;;;7.75;7.25;;;;;22.20;44.02;100746.72;5037192;28;45790;-48
2022/05/11 01:13:00;;;;;;;;;9.50;9.50;;;;;22.17;43.75;100741.72;5037022;28;45488;-50
2022/05/11 01:15:26;;;;;;;;;7.80;7.80;;;;;22.13;43.88;100737.81;5036015;28;45653;-54
2022/05/11 01:17:51;;;;;;;;;9.25;8.00;;;;;22.15;43.88;100744.78;5035717;28;46355;-50
2022/05/11 01:20:19;;;;;;;;;9.00;7.25;;;;;22.13;44.03;100747.03;5035410;28;45389;-48
2022/05/11 01:23:17;;;;;;;;;11.60;10.00;;;;;22.09;43.92;100739.53;5036910;28;45313;-48
2022/05/11 01:25:42;;;;;;;;;7.80;6.80;;;;;21.87;43.83;100698.91;5024749;28;45433;-47
2022/05/11 01:28:12;;;;;;;;;10.00;8.00;;;;;22.00;44.03;100729.00;5036756;28;46496;-53
2022/05/11 01:30:45;;;;;;;;;12.40;8.40;;;;;21.86;44.24;100709.22;5035432;28;45432;-50
2022/05/11 01:33:15;;;;;;;;;11.20;9.80;;;;;21.88;44.52;100732.13;5035206;28;45390;-49
2022/05/11 01:36:02;;;;;;;;;9.00;9.00;;;;;21.70;44.62;100711.28;5036318;28;45543;-49
2022/05/11 01:38:31;;;;;;;;;7.80;7.80;;;;;21.58;44.54;100703.22;5035178;28;46699;-50
2022/05/11 01:40:57;;;;;;;;;9.00;9.00;;;;;21.72;44.73;100716.59;5036536;28;45592;-51
2022/05/11 01:43:25;;;;;;;;;11.25;8.00;;;;;21.59;44.91;100709.63;5036651;28;45287;-52
2022/05/11 01:45:51;;;;;;;;;8.20;8.20;;;;;21.57;44.68;100704.34;5036795;28;45433;-50
2022/05/11 01:48:16;;;;;;;;;7.00;6.25;;;;;21.76;44.70;100726.88;5068675;28;47279;-52
2022/05/11 01:50:42;;;;;;;;;8.75;8.75;;;;;21.77;44.84;100730.53;5068734;28;45515;-47
2022/05/11 01:53:08;;;;;;;;;10.25;8.00;;;;;21.10;44.90;100628.38;5018210;28;45368;-50
2022/05/11 01:55:33;;;;;;;;;11.50;9.75;;;;;21.61;44.61;100708.22;5052232;28;46022;-49
2022/05/11 01:57:59;;;;;;;;;12.00;10.75;;;;;21.75;44.65;100732.75;5052932;28;46349;-51
2022/05/11 02:00:24;;;;;;;;;8.50;7.50;;;;;21.65;44.64;100723.28;5055903;28;45544;-49
2022/05/11 02:02:50;;;;;;;;;7.00;7.00;;;;;21.65;44.93;100726.09;5056088;28;45438;-51
2022/05/11 02:08:00;;;;;;;;;7.00;7.00;;;;;21.58;45.06;100719.13;5056043;28;45867;-49
2022/05/11 02:10:26;;;;;;;;;9.75;9.00;;;;;21.66;45.18;100729.69;5054352;28;45766;-55
2022/05/11 02:12:52;;;;;;;;;9.60;7.80;;;;;21.63;44.96;100722.75;5056635;28;45484;-54
2022/05/11 02:15:18;;;;;;;;;8.25;7.75;;;;;21.52;44.97;100707.16;5054779;28;45338;-51
2022/05/11 02:17:43;;;;;;;;;8.80;7.60;;;;;21.60;45.12;100716.91;5054124;28;47563;-48
2022/05/11 02:20:10;;;;;;;;;8.75;7.75;;;;;21.56;44.98;100721.38;5055963;28;45273;-48
2022/05/11 02:22:36;;;;;;;;;7.00;7.00;;;;;21.57;44.99;100720.25;5055401;28;45257;-49
2022/05/11 02:25:02;;;;;;;;;9.25;9.25;;;;;21.52;45.09;100718.34;5056252;28;45554;-53
2022/05/11 02:27:28;;;;;;;;;8.60;8.00;;;;;21.51;45.09;100723.06;5054077;28;45404;-52
2022/05/11 02:29:53;;;;;;;;;12.00;8.00;;;;;21.49;45.18;100713.31;5055807;28;45425;-51
2022/05/11 02:32:19;;;;;;;;;10.75;10.25;;;;;21.48;45.47;100714.44;5055834;28;45434;-51
2022/05/11 02:37:28;;;;;;;;;7.20;7.20;;;;;21.24;45.86;100684.41;5055547;28;45415;-51
2022/05/11 02:39:54;;;;;;;;;8.75;8.75;;;;;21.40;46.00;100711.13;5054235;28;45649;-47
2022/05/11 02:42:19;;;;;;;;;7.00;6.25;;;;;21.39;46.06;100705.81;5055479;28;45416;-48
2022/05/11 02:44:45;;;;;;;;;10.00;10.00;;;;;21.26;46.18;100696.97;5055627;28;45527;-52
2022/05/11 02:47:11;;;;;;;;;8.00;8.00;;;;;21.26;46.19;100712.88;5041373;28;46894;-52
2022/05/11 02:49:37;;;;;;;;;9.40;9.40;;;;;20.99;47.08;100678.63;5067530;28;45457;-54
2022/05/11 02:52:03;;;;;;;;;11.00;11.00;;;;;21.11;47.00;100703.44;5035283;28;45427;-51
2022/05/11 02:54:28;;;;;;;;;8.25;7.75;;;;;21.11;47.09;100703.44;5035674;28;45497;-51
2022/05/11 02:56:54;;;;;;;;;11.25;8.00;;;;;21.11;46.83;100702.59;5067083;28;46151;-48
2022/05/11 02:59:19;;;;;;;;;8.50;8.50;;;;;21.02;47.20;100698.72;5035436;28;45300;-48
2022/05/11 03:01:45;;;;;;;;;7.25;7.25;;;;;21.02;47.16;100710.69;5034966;28;45379;-51
2022/05/11 03:04:10;;;;;;;;;10.25;8.25;;;;;20.74;47.01;100656.38;5036022;28;45207;-50
2022/05/11 03:06:36;;;;;;;;;9.50;8.00;;;;;21.01;47.45;100709.03;5067595;28;45981;-51
2022/05/11 03:09:01;;;;;;;;;8.00;7.00;;;;;21.02;47.32;100704.31;5035398;28;45345;-50
2022/05/11 03:11:27;;;;;;;;;10.75;10.75;;;;;20.99;47.35;100705.69;5035309;28;45341;-49
2022/05/11 03:13:52;;;;;;;;;10.25;9.50;;;;;20.95;47.44;100705.44;5026606;28;45309;-48
2022/05/11 03:16:18;;;;;;;;;8.25;8.25;;;;;20.92;47.75;100710.75;5034646;28;45395;-49
2022/05/11 03:18:43;;;;;;;;;10.25;6.75;;;;;20.88;47.80;100707.69;5034356;28;45338;-51
2022/05/11 03:21:09;;;;;;;;;9.75;9.75;;;;;20.67;48.08;100676.19;5028066;28;45366;-50
2022/05/11 03:23:35;;;;;;;;;10.25;10.25;;;;;20.81;47.91;100705.16;5035475;28;45326;-48
2022/05/11 03:26:00;;;;;;;;;10.80;9.00;;;;;20.80;48.13;100703.47;5033644;28;45710;-50
2022/05/11 03:28:26;;;;;;;;;7.75;7.75;;;;;20.81;48.13;100704.31;5034402;28;45468;-51
2022/05/11 03:30:51;;;;;;;;;10.25;7.75;;;;;20.15;48.22;100601.00;5033168;28;45385;-47
2022/05/11 03:36:01;;;;;;;;;10.60;7.40;;;;;20.67;48.50;100704.91;5031337;28;45398;-49
2022/05/11 03:38:26;;;;;;;;;10.25;10.25;;;;;20.65;48.48;100700.72;5034977;28;45451;-52
2022/05/11 03:40:52;;;;;;;;;10.25;10.00;;;;;20.62;48.50;100696.56;5035022;28;45354;-49
2022/05/11 03:43:17;;;;;;;;;11.25;10.25;;;;;20.55;48.60;100696.81;5034806;28;45441;-48
2022/05/11 03:45:43;;;;;;;;;11.00;8.75;;;;;20.52;48.48;100689.03;5034833;28;46499;-48
2022/05/11 03:48:08;;;;;;;;;9.75;7.75;;;;;20.54;48.65;100697.13;5033249;28;45457;-52
2022/05/11 03:50:34;;;;;;;;;7.00;7.00;;;;;19.92;48.82;100604.03;5035121;28;45309;-50
2022/05/11 03:53:00;;;;;;;;;10.80;9.60;;;;;20.49;48.80;100702.69;5067198;28;45517;-50
2022/05/11 03:55:26;;;;;;;;;11.00;10.75;;;;;20.51;48.84;100694.88;5033379;28;47042;-49
2022/05/11 03:57:51;;;;;;;;;11.75;10.50;;;;;20.49;48.99;100691.56;5035492;28;45611;-49
2022/05/11 04:00:20;;;;;;;;;9.75;9.75;;;;;20.45;48.96;100683.72;5036935;28;45443;-48
2022/05/11 04:02:46;;;;;;;;;11.20;8.60;;;;;20.36;48.84;100673.44;5037858;28;45407;-50
2022/05/11 04:05:13;;;;;;;;;9.25;7.75;;;;;20.52;49.04;100690.97;5037543;28;45589;-53
2022/05/11 04:07:39;;;;;;;;;12.60;12.20;;;;;20.51;49.03;100695.72;5037646;28;45386;-52
2022/05/11 04:10:05;;;;;;;;;10.00;8.60;;;;;20.40;48.99;100680.97;5037971;28;45264;-50
2022/05/11 04:12:31;;;;;;;;;8.80;8.80;;;;;20.35;48.83;100666.19;5037727;28;45500;-49
2022/05/11 04:14:57;;;;;;;;;8.00;6.50;;;;;20.48;48.86;100692.66;5037903;28;46365;-51
2022/05/11 04:17:22;;;;;;;;;12.00;9.25;;;;;20.55;48.82;100701.59;5019571;28;45295;-49
2022/05/11 04:19:48;;;;;;;;;10.50;10.50;;;;;20.28;48.86;100660.91;5037736;28;45358;-50
2022/05/11 04:22:13;;;;;;;;;10.50;10.50;;;;;20.54;48.80;100711.06;5036493;28;45406;-50
2022/05/11 04:24:39;;;;;;;;;11.00;8.50;;;;;20.53;49.00;100710.22;5036242;28;46212;-50
2022/05/11 04:27:05;;;;;;;;;9.25;9.25;;;;;20.51;48.84;100714.41;5037469;28;45441;-48
2022/05/11 04:29:31;;;;;;;;;11.40;11.20;;;;;20.51;48.79;100711.59;5036107;28;45464;-49
2022/05/11 04:31:56;;;;;;;;;10.75;10.75;;;;;20.32;48.79;100681.50;5037715;28;45427;-47
2022/05/11 04:34:22;;;;;;;;;13.50;11.50;;;;;20.49;48.99;100709.09;5036944;28;46029;-51
2022/05/11 04:36:48;;;;;;;;;10.00;10.00;;;;;20.26;49.01;100671.47;5036221;28;45410;-48
2022/05/11 04:39:13;;;;;;;;;11.00;11.00;;;;;20.27;48.96;100673.19;5037326;28;45413;-47
2022/05/11 04:41:39;;;;;;;;;11.75;10.00;;;;;20.25;48.96;100686.53;5037661;28;45397;-47
2022/05/11 04:44:05;;;;;;;;;11.00;9.50;;;;;20.45;48.89;100705.22;5035152;28;46849;-45
2022/05/11 04:46:33;;;;;;;;;10.25;8.75;;;;;20.47;48.94;100707.69;5036895;28;45545;-52
2022/05/11 04:49:16;;;;;;;;;13.80;13.80;;;;;20.34;48.72;100684.88;5037197;28;45440;-52
2022/05/11 04:51:43;;;;;;;;;11.00;11.00;;;;;20.45;48.95;100702.44;5035921;28;45478;-47
2022/05/11 04:54:09;;;;;;;;;12.40;12.40;;;;;20.51;48.96;100698.53;5037000;28;45727;-48
2022/05/11 04:56:34;;;;;;;;;11.00;11.00;;;;;20.56;48.64;100700.47;5036806;28;45817;-51
2022/05/11 04:59:00;;;;;;;;;10.50;10.50;;;;;20.56;48.59;100692.91;5037282;28;45449;-49
2022/05/11 05:01:26;;;;;;;;;12.00;10.50;;;;;20.62;48.24;100690.13;5037241;28;45346;-49
2022/05/11 05:03:51;;;;;;;;;9.00;8.60;;;;;20.67;48.00;100696.56;5068615;28;46183;-51
2022/05/11 05:06:17;;;;;;;;;9.00;9.00;;;;;20.55;48.27;100693.22;5036082;28;45295;-50
2022/05/11 05:08:43;;;;;;;;;10.50;10.50;;;;;20.41;48.27;100679.00;5035305;28;45517;-49
2022/05/11 05:11:09;;;;;;;;;12.40;9.40;;;;;20.19;48.17;100632.78;5036483;28;45518;-49
2022/05/11 05:13:34;;;;;;;;;12.75;12.00;;;;;20.41;47.92;100667.84;5036533;28;46449;-46
2022/05/11 05:16:00;;;;;;;;;13.00;11.25;;;;;20.58;47.96;100698.22;5035583;28;45335;-49
2022/05/11 05:18:26;;;;;;;;;12.00;12.00;;;;;20.59;48.10;100699.88;5037183;28;45328;-52
2022/05/11 05:20:53;;;;;;;;;13.00;11.75;;;;;20.62;47.48;100706.84;5036950;28;45302;-50
2022/05/11 05:23:18;;;;;;;;;10.40;9.00;;;;;20.56;47.68;100697.66;5036736;28;47744;-48
2022/05/11 05:25:44;;;;;;;;;5.75;5.75;;;;;20.55;47.88;100702.41;5035395;28;45430;-46
2022/05/11 05:31:08;;;;;;;;;16.40;13.60;;;;;20.32;47.96;100678.72;5044854;28;45996;-51
2022/05/11 05:33:34;;;;;;;;;10.80;10.40;;;;;20.51;47.99;100703.25;5036338;28;46089;-47
2022/05/11 05:36:00;;;;;;;;;8.00;8.00;;;;;20.51;47.60;100697.66;5036647;28;45347;-47
2022/05/11 05:38:25;;;;;;;;;13.50;12.25;;;;;20.42;47.61;100681.53;5036684;28;45311;-48
2022/05/11 05:40:51;;;;;;;;;10.25;10.00;;;;;20.49;47.37;100709.09;5036536;28;45382;-50
2022/05/11 05:43:17;;;;;;;;;11.25;8.50;;;;;20.28;47.30;100672.88;5036474;28;46640;-49
2022/05/11 05:45:52;;;;;;;;;12.00;10.00;;;;;20.33;47.11;100669.25;5036508;28;45334;-49
2022/05/11 05:48:19;;;;;;;;;15.40;12.00;;;;;20.58;47.49;100706.56;5036336;28;45536;-47
2022/05/11 05:50:44;;;;;;;;;11.40;11.40;;;;;20.60;47.21;100715.53;5011374;28;45579;-52
2022/05/11 05:53:10;;;;;;;;;7.75;6.25;;;;;20.58;47.16;100717.72;5033205;28;45433;-53
2022/05/11 05:55:35;;;;;;;;;10.00;10.00;;;;;20.52;47.01;100716.91;5035282;28;45424;-54
2022/05/11 05:58:01;;;;;;;;;14.25;11.50;;;;;20.50;46.96;100713.56;5035970;28;45445;-54
2022/05/11 06:00:26;;;;;;;;;11.00;11.00;;;;;20.38;46.73;100702.69;5036277;28;45547;-49
2022/05/11 06:02:54;;;;;;;;;11.50;10.25;;;;;20.43;46.58;100716.63;5035522;28;45480;-50
2022/05/11 06:05:19;;;;;;;;;14.00;10.80;;;;;20.40;46.64;100720.00;5035815;28;45416;-50
2022/05/11 06:07:45;;;;;;;;;8.25;7.75;;;;;20.41;46.77;100724.44;5036004;28;45394;-51
2022/05/11 06:10:10;;;;;;;;;10.25;9.25;;;;;20.36;46.36;100720.81;5036227;28;45679;-49
2022/05/11 06:12:36;;;;;;;;;9.75;9.75;;;;;20.39;46.46;100721.09;5035879;28;45996;-48
2022/05/11 06:15:02;;;;;;;;;10.75;10.75;;;;;20.33;46.56;100705.47;5035494;28;45263;-50
2022/05/11 06:17:28;;;;;;;;;11.00;11.00;;;;;20.44;46.26;100717.47;5035944;28;45287;-54
2022/05/11 06:19:54;;;;;;;;;10.80;9.40;;;;;20.44;46.30;100709.94;5034702;28;45286;-53
2022/05/11 06:22:21;;;;;;;;;8.50;8.50;;;;;20.41;46.53;100704.09;5035416;28;45387;-52
2022/05/11 06:24:46;;;;;;;;;10.80;8.80;;;;;20.55;46.25;100712.72;5034175;28;45353;-49
2022/05/11 06:27:16;;;;;;;;;11.75;10.75;;;;;20.57;46.01;100716.91;5035632;28;45481;-51
2022/05/11 06:29:42;;;;;;;;;9.60;7.80;;;;;20.27;46.03;100690.72;5035678;28;45616;-51
2022/05/11 06:32:07;;;;;;;;;11.50;10.25;;;;;20.49;45.78;100716.63;5033855;28;47551;-53
2022/05/11 06:34:33;;;;;;;;;11.80;11.40;;;;;20.44;46.17;100709.13;5035254;28;45410;-49
2022/05/11 06:36:58;;;;;;;;;10.75;9.25;;;;;20.54;45.92;100713.84;5007613;27;45388;-51
2022/05/11 06:39:24;;;;;;;;;9.00;9.00;;;;;20.49;45.85;100709.09;5034144;28;45404;-53
2022/05/11 06:41:49;;;;;;;;;9.00;8.00;;;;;20.47;45.90;100711.34;5035274;28;46014;-52
2022/05/11 06:44:15;;;;;;;;;11.00;8.50;;;;;20.50;45.90;100716.38;5034027;28;45337;-49
2022/05/11 06:46:40;;;;;;;;;10.00;10.00;;;;;20.56;45.83;100715.22;5035342;28;45460;-51
2022/05/11 06:49:06;;;;;;;;;12.00;9.75;;;;;20.56;45.80;100709.63;5035615;28;45548;-49
2022/05/11 06:51:31;;;;;;;;;13.25;10.50;;;;;20.49;45.48;100703.50;5011917;28;46305;-50
2022/05/11 06:59:33;;;;;;;;;10.00;8.40;;;;;19.76;46.17;100635.78;5034502;28;45513;-52
2022/05/11 07:01:59;;;;;;;;;9.60;9.60;;;;;20.16;46.68;100708.53;5033763;28;46460;-47
2022/05/11 07:04:25;;;;;;;;;11.40;9.00;;;;;20.34;46.50;100717.47;5034667;28;45757;-48
2022/05/11 07:06:52;;;;;;;;;7.20;7.20;;;;;20.38;46.29;100716.63;5035273;28;45461;-48
2022/05/11 07:09:18;;;;;;;;;7.00;7.00;;;;;20.27;45.56;100687.13;5033819;28;45568;-51
2022/05/11 07:14:27;;;;;;;;;7.80;6.40;;;;;20.27;45.13;100701.88;5035270;28;45353;-51
2022/05/11 07:16:54;;;;;;;;;9.25;7.50;;;;;20.13;44.96;100673.72;5035377;28;45445;-51
2022/05/11 07:19:23;;;;;;;;;7.40;7.40;;;;;20.27;44.63;100698.25;5067896;28;45498;-47
2022/05/11 07:21:49;;;;;;;;;7.80;6.60;;;;;20.41;45.08;100704.94;5035367;28;45626;-53
2022/05/11 07:24:14;;;;;;;;;7.25;7.25;;;;;20.41;44.80;100707.72;5034956;28;45418;-50
2022/05/11 07:26:40;;;;;;;;;7.00;5.75;;;;;20.51;44.60;100714.41;5028074;28;45814;-50
2022/05/11 07:29:05;;;;;;;;;8.25;7.75;;;;;20.59;45.09;100719.41;5027973;28;45618;-50
2022/05/11 07:31:31;;;;;;;;;9.00;8.25;;;;;20.67;44.98;100718.00;5030529;28;45786;-52
2022/05/11 07:33:56;;;;;;;;;5.50;5.25;;;;;20.72;45.46;100713.25;5033674;28;45571;-51
2022/05/11 07:36:24;;;;;;;;;7.00;5.75;;;;;20.72;44.75;100713.25;5033641;28;45813;-50
2022/05/11 07:38:50;;;;;;;;;6.40;6.40;;;;;20.70;44.52;100711.84;5034595;28;45449;-60
2022/05/11 07:41:16;;;;;;;;;5.40;5.40;;;;;20.76;44.49;100715.50;5034604;28;46369;-49
2022/05/11 07:43:41;;;;;;;;;6.25;6.25;;;;;20.59;44.32;100685.94;5033939;28;45359;-49
2022/05/11 07:46:07;;;;;;;;;8.75;8.50;;;;;20.59;44.22;100675.63;5034552;28;45438;-51
2022/05/11 07:48:32;;;;;;;;;10.50;7.50;;;;;20.85;44.56;100711.03;5033098;28;45566;-50
2022/05/11 07:50:58;;;;;;;;;4.00;4.00;;;;;20.88;43.72;100706.84;5034333;28;46100;-51
2022/05/11 07:53:24;;;;;;;;;6.75;6.50;;;;;20.85;44.25;100713.81;5020382;27;45437;-51
2022/05/11 07:59:52;;;;;;;;;6.50;6.50;;;;;20.90;44.25;100716.59;5017005;28;46069;-52
2022/05/11 08:01:18;;;;;;;;;4.80;4.80;;;;;20.96;43.43;100704.31;5060262;27;45454;-52
2022/05/11 08:03:44;;;;;;;;;4.50;4.50;;;;;20.38;43.61;100619.09;5033353;28;45334;-53
2022/05/11 08:06:09;;;;;;;;;9.25;6.50;;;;;20.56;43.09;100641.91;5034077;28;45425;-57
2022/05/11 08:08:35;;;;;;;;;4.00;4.00;;;;;20.92;42.76;100689.25;5033824;28;45639;-55
2022/05/11 08:11:01;;;;;;;;;6.00;6.00;;;;;21.16;42.51;100726.84;5033539;28;45795;-52
2022/05/11 08:13:26;;;;;;;;;5.00;4.75;;;;;20.97;42.67;100680.88;5032922;28;45845;-48
2022/05/11 08:15:52;;;;;;;;;5.00;3.75;;;;;21.21;42.21;100716.50;5033254;28;45472;-53
2022/05/11 08:18:18;;;;;;;;;6.75;5.25;;;;;21.26;42.37;100710.91;5033659;28;45798;-52
2022/05/11 08:20:44;;;;;;;;;6.20;5.00;;;;;21.13;42.56;100675.22;5031918;28;45746;-54
2022/05/11 08:23:10;;;;;;;;;5.00;5.00;;;;;21.29;41.91;100694.72;5031970;28;45453;-52
2022/05/11 08:25:36;;;;;;;;;3.50;3.50;;;;;21.37;40.63;100702.50;5032697;28;45384;-54
2022/05/11 08:28:02;;;;;;;;;7.20;5.40;;;;;20.97;41.02;100663.31;5033339;28;45319;-50
2022/05/11 08:33:24;;;;;;;;;2.60;2.60;;;;;21.18;40.94;100702.28;5032903;28;45853;-52
2022/05/11 08:35:51;;;;;;;;;5.00;4.80;;;;;21.32;40.38;100714.50;5032692;28;45470;-50
2022/05/11 08:38:18;;;;;;;;;3.60;3.60;;;;;21.18;40.44;100672.41;5033698;28;45476;-52
2022/05/11 08:41:04;;;;;;;;;3.00;3.00;;;;;21.45;40.61;100718.63;5065660;28;47237;-48
2022/05/11 08:43:31;;;;;;;;;6.40;4.00;;;;;21.55;39.82;100723.34;5031639;28;45807;-54
2022/05/11 08:46:21;;;;;;;;;5.20;5.20;;;;;21.64;39.67;100717.97;5048226;28;45490;-53
2022/05/11 08:48:59;;;;;;;;;3.00;3.00;;;;;21.74;39.19;100714.34;5064031;27;45536;-55
2022/05/11 08:51:57;;;;;;;;;2.80;2.80;;;;;21.79;38.80;100717.09;5033102;28;45535;-51
2022/05/11 08:54:44;;;;;;;;;4.40;4.40;;;;;21.89;38.37;100727.38;5043406;28;45906;-58
2022/05/11 08:57:16;;;;;;;;;4.00;4.00;;;;;21.95;37.73;100706.66;5028278;27;45735;-51
2022/05/11 08:59:42;;;;;;;;;4.60;3.80;;;;;21.94;38.18;100693.81;5050801;28;45408;-51
2022/05/11 09:02:31;;;;;;;;;3.25;3.25;;;;;22.10;38.28;100716.06;5048044;28;45441;-49
2022/05/11 09:04:59;;;;;;;;;4.40;4.20;;;;;21.98;37.07;100689.31;5031597;28;45485;-53
2022/05/11 09:07:26;;;;;;;;;4.80;3.60;;;;;22.16;37.31;100710.16;5048186;28;45479;-52
2022/05/11 09:09:52;;;;;;;;;2.80;2.80;;;;;22.07;37.79;100686.72;5048205;27;45491;-50
2022/05/11 09:12:17;;;;;;;;;2.60;2.60;;;;;22.07;37.41;100664.38;5047091;28;48617;-51
2022/05/11 09:14:50;;;;;;;;;3.25;3.25;;;;;22.33;37.66;100704.13;5064970;28;45762;-55
2022/05/11 09:17:36;;;;;;;;;2.40;2.40;;;;;22.33;37.82;100698.53;5032650;28;45396;-53
2022/05/11 09:20:11;;;;;;;;;3.00;3.00;;;;;22.26;38.03;100698.06;5046345;28;45563;-48
2022/05/11 09:22:42;;;;;;;;;3.40;3.40;;;;;22.45;37.05;100706.53;5032630;28;45586;-50
2022/05/11 09:25:20;;;;;;;;;3.00;3.00;;;;;22.45;36.04;100694.50;5022976;28;45894;-49
2022/05/11 09:27:46;;;;;;;;;3.00;2.80;;;;;22.46;35.03;100713.81;5026622;28;45359;-54
2022/05/11 09:30:23;;;;;;;;;2.25;2.25;;;;;22.46;34.72;100710.16;5030330;28;45398;-57
2022/05/11 09:32:53;;;;;;;;;2.80;2.40;;;;;22.50;34.97;100714.03;5030132;28;45734;-52
2022/05/11 09:35:35;;;;;;;;;2.60;2.60;;;;;22.28;35.27;100667.84;5047181;28;45444;-52
2022/05/11 09:38:03;;;;;;;;;4.20;3.00;;;;;22.39;35.86;100676.13;5030727;28;46144;-49
2022/05/11 09:40:30;;;;;;;;;2.00;2.00;;;;;22.71;35.50;100702.69;5031904;28;45778;-54
2022/05/11 09:43:03;;;;;;;;;2.60;2.00;;;;;22.56;34.21;100682.13;5031008;28;46301;-53
2022/05/11 09:45:49;;;;;;;;;3.20;3.00;;;;;22.72;34.16;100710.78;5031848;28;45480;-52
2022/05/11 09:48:17;;;;;;;;;6.00;4.00;;;;;22.72;34.58;100702.41;5030718;28;45449;-49
2022/05/11 09:50:43;;;;;;;;;6.00;4.60;;;;;22.58;34.48;100674.28;5032302;28;45608;-52
2022/05/11 09:53:33;;;;;;;;;2.00;2.00;;;;;22.81;34.65;100697.00;5031892;28;46451;-56
2022/05/11 09:56:39;;;;;;;;;4.40;4.40;;;;;22.74;34.68;100662.94;5030292;28;45555;-54
2022/05/11 09:59:27;;;;;;;;;3.20;2.00;;;;;22.95;33.97;100688.72;5058913;28;45603;-58
2022/05/11 10:02:02;;;;;;;;;2.60;2.40;;;;;22.87;34.66;100665.03;5031572;28;45545;-55
2022/05/11 10:04:55;;;;;;;;;4.00;2.00;;;;;23.03;34.42;100687.22;5045904;28;46315;-52
2022/05/11 10:07:20;;;;;;;;;1.00;1.00;;;;;23.05;34.91;100681.34;5031648;28;45948;-54
2022/05/11 10:09:50;;;;;;;;;2.50;2.50;;;;;23.04;34.50;100679.69;5047468;28;45351;-56
2022/05/11 10:12:17;;;;;;;;;3.40;3.40;;;;;23.00;35.04;100669.06;5030877;28;45458;-54
2022/05/11 10:23:08;;;;;;;;;3.20;2.80;;;;;23.08;34.66;100663.94;5030775;28;45454;-50
2022/05/11 10:25:42;;;;;;;;;4.40;2.80;;;;;23.25;35.19;100689.50;5062952;27;46492;-50
2022/05/11 10:28:16;;;;;;;;;2.20;2.20;;;;;23.08;35.65;100661.16;5031886;28;45507;-54
2022/05/11 10:31:06;;;;;;;;;2.60;2.60;;;;;23.12;35.75;100670.63;5029403;28;45499;-48
2022/05/11 10:34:00;;;;;;;;;2.00;2.00;;;;;23.36;35.77;100700.56;5029114;28;45501;-53
2022/05/11 10:37:15;;;;;;;;;3.40;2.40;;;;;23.39;35.81;100691.59;5030468;28;45496;-51
2022/05/11 10:40:09;;;;;;;;;2.00;2.00;;;;;23.41;36.32;100690.16;5021708;28;45858;-53
2022/05/11 10:42:47;;;;;;;;;0.00;0.00;;;;;23.21;36.22;100682.00;5031112;28;45968;-51
2022/05/11 10:45:16;;;;;;;;;2.40;2.40;;;;;23.28;36.56;100676.84;5030852;28;45423;-51
2022/05/11 10:48:05;;;;;;;;;4.00;2.60;;;;;23.47;36.98;100681.69;5031109;28;45508;-52
2022/05/11 10:50:46;;;;;;;;;1.40;1.40;;;;;23.57;36.36;100689.13;5030254;28;45388;-53
2022/05/11 10:53:26;;;;;;;;;4.60;3.20;;;;;23.42;36.84;100654.56;5031469;28;45751;-55
2022/05/11 10:56:32;;;;;;;;;3.60;3.60;;;;;23.60;37.01;100683.75;5046702;28;45412;-50
2022/05/11 10:59:36;;;;;;;;;3.20;2.00;;;;;23.65;36.67;100694.84;5046566;28;48051;-49
2022/05/11 11:02:04;;;;;;;;;3.00;3.00;;;;;23.73;37.01;100692.53;5029683;28;45598;-54
2022/05/11 11:04:42;;;;;;;;;2.20;1.60;;;;;23.76;36.79;100687.16;5031003;28;45759;-52
2022/05/11 11:07:23;;;;;;;;;3.00;3.00;;;;;23.83;37.21;100669.94;5031177;28;45794;-56
2022/05/11 11:10:26;;;;;;;;;2.60;2.60;;;;;23.89;37.06;100667.88;5064306;28;46140;-53
2022/05/11 11:13:13;;;;;;;;;5.60;5.60;;;;;23.91;37.12;100665.63;5032952;28;45484;-54
2022/05/11 11:15:42;;;;;;;;;3.00;2.40;;;;;23.96;37.30;100668.38;5032900;28;45767;-55
2022/05/11 11:18:07;;;;;;;;;3.40;3.40;;;;;24.02;36.92;100669.09;4986470;28;45889;-53
2022/05/11 11:20:36;;;;;;;;;2.50;2.00;;;;;24.06;36.47;100656.16;5016061;28;45491;-51
2022/05/11 11:23:07;;;;;;;;;3.20;3.00;;;;;24.16;36.91;100658.78;5032580;28;45793;-51
2022/05/11 11:25:52;;;;;;;;;2.40;2.40;;;;;24.25;35.66;100647.72;5033555;28;45472;-54
2022/05/11 11:28:23;;;;;;;;;3.00;3.00;;;;;24.31;35.93;100651.25;5015753;28;45517;-52
2022/05/11 11:30:58;;;;;;;;;2.00;2.00;;;;;24.40;35.75;100637.34;5033805;28;45852;-54
2022/05/11 11:33:24;;;;;;;;;1.20;1.20;;;;;24.44;35.38;100650.44;5034335;28;45838;-56
2022/05/11 11:35:57;;;;;;;;;2.80;2.80;;;;;24.46;35.64;100648.19;5033055;28;45506;-53
2022/05/11 11:38:38;;;;;;;;;2.00;2.00;;;;;24.54;35.42;100643.00;5033140;28;45417;-55
2022/05/11 11:41:23;;;;;;;;;1.00;1.00;;;;;24.61;35.16;100649.84;5033754;28;45528;-55
2022/05/11 11:43:49;;;;;;;;;1.20;1.20;;;;;24.67;34.37;100642.19;5034068;28;45436;-53
2022/05/11 11:46:30;;;;;;;;;3.00;2.00;;;;;24.67;34.91;100639.38;5033574;28;45772;-54
2022/05/11 11:49:08;;;;;;;;;2.20;2.20;;;;;24.76;34.84;100629.09;5034405;28;45658;-53
2022/05/11 11:51:52;;;;;;;;;5.80;4.80;;;;;24.82;34.48;100626.22;5032755;28;46736;-53
2022/05/11 11:54:40;;;;;;;;;2.00;2.00;;;;;24.91;34.80;100621.53;5013785;28;45436;-55
2022/05/11 11:57:16;;;;;;;;;3.00;2.60;;;;;25.00;34.67;100635.66;5013452;28;45491;-56
2022/05/11 11:59:49;;;;;;;;;5.00;5.00;;;;;25.11;34.78;100628.69;5014227;28;45688;-53
2022/05/11 12:02:30;;;;;;;;;0.00;0.00;;;;;25.21;34.30;100622.03;5014767;28;45916;-53
2022/05/11 12:05:11;;;;;;;;;3.00;3.00;;;;;25.05;34.32;100599.06;5032495;28;45929;-51
2022/05/11 12:16:01;;;;;;;;;3.00;2.00;;;;;25.38;34.25;100638.22;5059521;27;45474;-50
2022/05/11 12:18:34;;;;;;;;;1.40;1.40;;;;;25.44;34.44;100630.50;5031624;28;45504;-57